Time;durP1;ratioP1;P1;durP2;ratioP2;P2;SDS_P1;SDS_P2;PMS_P1;PMS_P2;Temp;Humidity;BMP_temperature;BMP_pressure;BME280_temperature;BME280_humidity;BME280_pressure;Samples;Min_cycle;Max_cycle;Signal;HPM_P1;HPM_P2
2021/08/13 00:02:11;;;;;;;6.20;5.70;;;;;;;25.62;47.70;98734.75;5014508;28;20222;-58
2021/08/13 00:04:38;;;;;;;6.23;5.73;;;;;;;25.65;48.13;98731.66;4996340;28;20203;-58
2021/08/13 00:07:05;;;;;;;6.23;5.73;;;;;;;25.69;47.90;98720.56;4980318;28;20199;-58
2021/08/13 00:09:31;;;;;;;7.13;6.53;;;;;;;25.69;47.93;98716.06;5014170;28;20205;-58
2021/08/13 00:11:58;;;;;;;6.33;5.80;;;;;;;25.68;47.79;98711.75;5013954;28;20690;-58
2021/08/13 00:14:24;;;;;;;5.77;5.27;;;;;;;25.69;47.96;98713.38;5013871;28;20206;-58
2021/08/13 00:16:51;;;;;;;6.23;5.73;;;;;;;25.68;47.89;98708.22;5014361;28;20179;-56
2021/08/13 00:19:17;;;;;;;6.30;5.80;;;;;;;25.72;47.69;98709.47;5013909;28;20605;-58
2021/08/13 00:21:44;;;;;;;6.37;5.87;;;;;;;25.62;47.87;98709.84;5013058;28;20191;-57
2021/08/13 00:24:10;;;;;;;6.27;5.77;;;;;;;25.62;47.76;98709.84;5013668;28;20675;-58
2021/08/13 00:26:37;;;;;;;6.33;5.83;;;;;;;25.65;47.88;98698.75;5013686;28;20221;-57
2021/08/13 00:29:03;;;;;;;6.83;6.20;;;;;;;25.61;47.76;98708.22;5013615;28;20187;-57
2021/08/13 00:31:30;;;;;;;5.77;5.37;;;;;;;25.62;48.02;98715.22;4995920;28;20199;-57
2021/08/13 00:33:57;;;;;;;6.10;5.60;;;;;;;25.63;47.98;98723.03;4995811;28;20206;-58
2021/08/13 00:36:24;;;;;;;6.57;5.97;;;;;;;25.67;47.94;98723.47;4995807;28;20606;-58
2021/08/13 00:38:51;;;;;;;6.50;5.93;;;;;;;25.64;47.90;98723.84;5013926;28;20185;-58
2021/08/13 00:41:18;;;;;;;6.30;5.80;;;;;;;25.62;47.70;98726.72;4995673;28;20681;-58
2021/08/13 00:43:47;;;;;;;6.30;5.80;;;;;;;25.62;47.91;98724.06;4995683;28;20324;-58
2021/08/13 00:46:16;;;;;;;5.87;5.37;;;;;;;25.60;47.99;98725.28;4995698;28;20256;-58
2021/08/13 00:49:01;;;;;;;5.83;5.33;;;;;;;25.57;48.04;98723.84;5013776;28;20210;-58
2021/08/13 00:51:39;;;;;;;5.87;5.43;;;;;;;25.59;47.89;98726.31;4995578;28;20661;-58
2021/08/13 00:54:10;;;;;;;6.30;5.80;;;;;;;25.60;47.82;98723.44;4995736;28;20215;-58
2021/08/13 00:56:42;;;;;;;6.07;5.57;;;;;;;25.58;47.75;98719.31;4995874;28;20548;-58
2021/08/13 00:59:27;;;;;;;5.97;5.47;;;;;;;25.57;47.82;98729.19;5013878;28;20216;-58
2021/08/13 01:02:05;;;;;;;6.10;5.50;;;;;;;25.57;47.94;98728.34;4995767;28;20218;-58
2021/08/13 01:04:32;;;;;;;5.90;5.40;;;;;;;25.58;47.95;98720.16;4995495;28;20623;-58
2021/08/13 01:07:03;;;;;;;6.37;5.87;;;;;;;25.57;48.09;98713.16;4995291;28;20253;-57
2021/08/13 01:09:31;;;;;;;6.50;5.90;;;;;;;25.56;47.70;98716.84;4995459;28;20289;-58
2021/08/13 01:12:20;;;;;;;5.70;5.30;;;;;;;25.56;47.93;98710.69;4995313;28;20297;-58
2021/08/13 01:14:53;;;;;;;6.60;5.97;;;;;;;25.56;47.94;98708.81;4995982;28;20574;-58
2021/08/13 01:17:22;;;;;;;6.33;5.80;;;;;;;25.57;48.01;98704.31;4993844;28;20257;-58
2021/08/13 01:19:59;;;;;;;6.30;5.80;;;;;;;25.44;48.33;98713.88;4995577;28;20249;-58
2021/08/13 01:22:29;;;;;;;6.10;5.40;;;;;;;25.48;48.25;98704.47;4995378;28;20218;-58
2021/08/13 01:25:01;;;;;;;5.73;5.23;;;;;;;25.48;48.15;98709.00;4995334;28;20566;-58
2021/08/13 01:27:34;;;;;;;6.70;6.10;;;;;;;25.42;48.17;98705.25;4995405;28;20194;-58
2021/08/13 01:30:05;;;;;;;6.27;5.77;;;;;;;25.43;48.22;98706.91;4995594;28;20277;-58
2021/08/13 01:33:00;;;;;;;6.00;5.50;;;;;;;25.42;48.19;98697.25;4996349;28;20305;-58
2021/08/13 01:35:31;;;;;;;6.10;5.60;;;;;;;25.41;48.37;98708.13;4999278;28;20186;-58
2021/08/13 01:38:23;;;;;;;5.53;5.13;;;;;;;25.43;48.12;98703.44;4999242;28;20221;-58
2021/08/13 01:40:57;;;;;;;6.30;5.70;;;;;;;25.42;48.25;98689.22;4979806;28;20249;-58
2021/08/13 01:43:25;;;;;;;6.40;5.80;;;;;;;25.40;48.21;98680.59;5016708;28;20233;-58
2021/08/13 01:45:55;;;;;;;6.47;5.90;;;;;;;25.43;48.09;98692.75;4999090;28;20230;-58
2021/08/13 01:48:26;;;;;;;5.60;5.20;;;;;;;25.41;48.35;98722.31;4998899;28;20298;-58
2021/08/13 01:50:53;;;;;;;6.27;5.77;;;;;;;25.44;48.22;98815.41;4998956;28;20187;-58
2021/08/13 01:53:22;;;;;;;6.17;5.70;;;;;;;25.49;48.11;98841.56;4998925;28;20215;-58
2021/08/13 01:55:52;;;;;;;6.33;5.73;;;;;;;25.57;47.90;98776.44;4999082;28;20195;-58
2021/08/13 01:58:22;;;;;;;6.20;5.70;;;;;;;25.56;47.56;98774.81;4999293;28;20195;-57
2021/08/13 02:00:51;;;;;;;6.27;5.77;;;;;;;25.56;47.68;98764.13;4998962;28;20566;-58
2021/08/13 02:03:20;;;;;;;6.70;6.00;;;;;;;25.55;47.63;98757.13;4998853;28;20313;-58
2021/08/13 02:05:48;;;;;;;6.23;5.77;;;;;;;25.54;47.66;98750.13;4998571;28;20217;-58
2021/08/13 02:08:16;;;;;;;6.37;5.77;;;;;;;25.53;47.74;98756.50;4998658;28;20194;-58
2021/08/13 02:10:45;;;;;;;5.80;5.30;;;;;;;25.50;47.97;98765.75;4998521;28;20201;-58
2021/08/13 02:13:14;;;;;;;6.40;5.87;;;;;;;25.49;48.17;98753.41;4982724;28;20771;-58
2021/08/13 02:15:52;;;;;;;6.13;5.63;;;;;;;25.48;47.88;98736.53;4998518;28;20184;-58
2021/08/13 02:18:24;;;;;;;6.13;5.63;;;;;;;25.50;48.03;98739.84;5016399;28;20640;-57
2021/08/13 02:20:55;;;;;;;6.37;5.87;;;;;;;25.49;48.14;98743.56;4998401;28;20198;-58
2021/08/13 02:23:23;;;;;;;6.17;5.67;;;;;;;25.48;47.76;98744.56;4998362;28;20214;-57
2021/08/13 02:25:56;;;;;;;6.73;6.23;;;;;;;25.49;48.11;98754.25;4998722;28;20268;-58
2021/08/13 02:28:23;;;;;;;5.57;5.17;;;;;;;25.48;47.75;98757.09;5016448;28;20253;-57
2021/08/13 02:30:50;;;;;;;6.07;5.57;;;;;;;25.53;47.91;98746.63;4998258;28;20201;-58
2021/08/13 02:33:16;;;;;;;5.80;5.30;;;;;;;25.54;47.72;98756.28;4998107;28;20249;-58
2021/08/13 02:35:46;;;;;;;5.53;5.13;;;;;;;25.53;47.63;98754.66;4998134;28;20665;-58
2021/08/13 02:38:27;;;;;;;6.20;5.70;;;;;;;25.54;47.69;98744.78;4998047;28;20202;-58
2021/08/13 02:41:07;;;;;;;6.20;5.70;;;;;;;25.51;47.68;98741.50;4997982;28;20194;-58
2021/08/13 02:43:41;;;;;;;6.13;5.63;;;;;;;25.53;47.74;98748.50;4997825;28;20317;-58
2021/08/13 02:46:09;;;;;;;6.40;5.80;;;;;;;25.53;47.84;98753.84;5015638;28;20612;-57
2021/08/13 02:48:39;;;;;;;6.47;5.87;;;;;;;25.50;47.90;98750.53;4998513;28;20195;-57
2021/08/13 02:51:10;;;;;;;5.97;5.47;;;;;;;25.53;47.71;98754.66;4997879;28;20195;-58
2021/08/13 02:53:44;;;;;;;5.97;5.47;;;;;;;25.59;47.79;98769.91;4997884;28;20238;-57
2021/08/13 02:56:14;;;;;;;6.37;5.87;;;;;;;25.59;47.36;98764.56;4998169;28;20198;-58
2021/08/13 02:58:52;;;;;;;6.40;5.67;;;;;;;25.55;47.63;98733.88;4997748;28;20198;-56
2021/08/13 03:01:23;;;;;;;5.87;5.37;;;;;;;25.58;47.78;98725.50;5015555;28;20175;-58
2021/08/13 03:03:54;;;;;;;6.53;5.93;;;;;;;25.48;48.10;98733.06;5015235;28;20681;-58
2021/08/13 03:06:30;;;;;;;5.77;5.20;;;;;;;25.46;48.15;98754.59;4997830;28;20712;-57
2021/08/13 03:08:59;;;;;;;6.17;5.67;;;;;;;25.43;47.88;98748.84;4981756;28;20190;-58
2021/08/13 03:11:27;;;;;;;6.17;5.67;;;;;;;25.43;47.94;98733.63;4997656;28;20201;-57
2021/08/13 03:13:54;;;;;;;5.90;5.40;;;;;;;25.48;48.06;98749.91;4997322;28;20215;-57
2021/08/13 03:16:25;;;;;;;5.87;5.37;;;;;;;25.48;47.75;98751.75;4997645;28;20544;-58
2021/08/13 03:18:52;;;;;;;5.90;5.40;;;;;;;25.46;47.73;98749.25;4997364;28;20194;-58
2021/08/13 03:21:19;;;;;;;6.13;5.53;;;;;;;25.47;48.06;98763.44;5014968;28;20191;-57
2021/08/13 03:23:45;;;;;;;6.23;5.63;;;;;;;25.46;48.07;98765.28;5015104;28;20262;-57
2021/08/13 03:26:14;;;;;;;7.07;4.97;;;;;;;25.41;47.85;98762.38;4997090;28;20218;-58
2021/08/13 03:28:41;;;;;;;6.30;5.80;;;;;;;25.47;47.76;98756.22;4997132;28;20216;-58
2021/08/13 03:31:08;;;;;;;6.00;5.50;;;;;;;25.46;47.59;98759.13;4997046;28;20194;-57
2021/08/13 03:33:37;;;;;;;6.63;6.00;;;;;;;25.45;48.01;98768.16;4996959;28;20215;-56
2021/08/13 03:36:06;;;;;;;5.93;5.43;;;;;;;25.42;47.91;98760.56;5014563;28;20668;-58
2021/08/13 03:38:34;;;;;;;6.43;5.83;;;;;;;25.41;48.21;98772.22;4997342;28;20692;-59
2021/08/13 03:41:04;;;;;;;5.90;5.40;;;;;;;25.48;47.88;98775.81;4996882;28;20194;-59
2021/08/13 03:43:30;;;;;;;6.67;6.17;;;;;;;25.53;47.66;98777.88;5014557;28;20728;-57
2021/08/13 03:45:57;;;;;;;6.13;5.63;;;;;;;25.42;47.90;98780.06;4996790;28;20218;-58
2021/08/13 03:48:23;;;;;;;6.17;5.67;;;;;;;25.50;47.68;98765.75;4996791;28;20233;-59
2021/08/13 03:50:50;;;;;;;6.23;5.70;;;;;;;25.49;47.91;98772.09;4996737;28;20198;-58
2021/08/13 03:53:18;;;;;;;6.00;5.50;;;;;;;25.51;47.67;98775.41;4996610;28;20697;-59
2021/08/13 03:55:44;;;;;;;6.40;5.80;;;;;;;25.54;47.54;98782.19;4995962;28;20201;-58
2021/08/13 03:58:12;;;;;;;6.07;5.57;;;;;;;25.54;47.75;98776.84;4996308;28;20199;-58
2021/08/13 04:00:38;;;;;;;5.90;5.40;;;;;;;25.49;47.57;98767.59;4996779;28;20198;-58
2021/08/13 04:03:06;;;;;;;5.80;5.30;;;;;;;25.48;47.92;98767.78;5014361;28;20600;-58
2021/08/13 04:05:32;;;;;;;5.93;5.37;;;;;;;25.48;47.87;98757.91;4996337;28;20198;-58
2021/08/13 04:07:59;;;;;;;6.30;5.80;;;;;;;25.50;47.58;98760.41;4996466;28;20256;-58
2021/08/13 04:10:26;;;;;;;6.07;5.47;;;;;;;25.48;47.65;98754.44;4980372;28;20190;-57
2021/08/13 04:12:53;;;;;;;6.13;5.60;;;;;;;25.50;47.62;98753.22;4996189;28;20265;-59
2021/08/13 04:15:22;;;;;;;5.87;5.37;;;;;;;25.50;47.71;98747.88;4996308;28;20205;-58
2021/08/13 04:17:51;;;;;;;6.30;5.80;;;;;;;25.50;47.81;98745.19;4995377;28;20612;-58
2021/08/13 04:20:20;;;;;;;6.57;5.97;;;;;;;25.48;47.54;98741.88;4996292;28;20257;-58
2021/08/13 04:22:51;;;;;;;6.00;5.50;;;;;;;25.49;47.62;98740.88;4996321;28;20226;-57
2021/08/13 04:25:19;;;;;;;6.33;5.70;;;;;;;25.51;47.55;98743.34;5013778;28;20190;-58
2021/08/13 04:27:45;;;;;;;6.20;5.70;;;;;;;25.51;47.64;98754.03;5013573;28;20207;-58
2021/08/13 04:30:13;;;;;;;6.10;5.50;;;;;;;25.48;47.92;98752.56;4996058;28;20253;-59
2021/08/13 04:32:40;;;;;;;6.00;5.50;;;;;;;25.49;47.59;98748.91;4996197;28;20559;-58
2021/08/13 04:35:10;;;;;;;6.00;5.50;;;;;;;25.47;47.84;98742.88;4996649;28;20213;-58
2021/08/13 04:37:37;;;;;;;6.23;5.73;;;;;;;25.48;47.52;98743.75;4995931;28;20190;-58
2021/08/13 04:40:05;;;;;;;6.77;6.17;;;;;;;25.47;47.43;98747.41;4995947;28;20202;-59
2021/08/13 04:42:37;;;;;;;6.60;6.00;;;;;;;25.48;47.75;98747.22;4995667;28;20230;-58
2021/08/13 04:45:04;;;;;;;6.10;5.53;;;;;;;25.49;47.48;98748.91;4995776;28;20562;-58
2021/08/13 04:47:37;;;;;;;6.10;5.60;;;;;;;25.48;47.71;98744.56;4996576;28;20252;-58
2021/08/13 04:50:05;;;;;;;5.87;5.37;;;;;;;25.51;47.67;98740.66;4995755;28;20232;-58
2021/08/13 04:52:31;;;;;;;6.23;5.73;;;;;;;25.55;47.55;98741.09;4995600;28;20218;-56
2021/08/13 04:54:58;;;;;;;6.67;6.07;;;;;;;25.57;47.25;98733.69;4995724;28;20229;-58
2021/08/13 04:57:24;;;;;;;5.80;5.30;;;;;;;25.58;47.25;98735.34;4995650;28;20191;-58
2021/08/13 04:59:51;;;;;;;6.10;5.60;;;;;;;25.56;47.35;98740.88;4995756;28;20191;-58
2021/08/13 05:02:22;;;;;;;6.57;5.90;;;;;;;25.55;47.54;98746.44;4995608;28;20226;-58
2021/08/13 05:04:58;;;;;;;6.03;5.53;;;;;;;25.53;47.47;98737.81;4979419;28;20666;-58
2021/08/13 05:07:25;;;;;;;6.50;5.97;;;;;;;25.53;47.60;98754.66;4995239;28;20210;-58
2021/08/13 05:09:51;;;;;;;6.37;5.80;;;;;;;25.53;47.25;98754.66;4995540;28;20253;-58
2021/08/13 05:12:18;;;;;;;6.13;5.63;;;;;;;25.56;47.55;98750.75;4995324;28;20221;-59
2021/08/13 05:14:45;;;;;;;5.60;5.20;;;;;;;25.54;47.54;98750.94;5013649;28;20253;-58
2021/08/13 05:17:12;;;;;;;6.00;5.50;;;;;;;25.51;47.37;98751.34;4995512;28;20286;-59
2021/08/13 05:19:39;;;;;;;6.10;5.50;;;;;;;25.51;47.53;98752.19;4995628;28;20222;-58
2021/08/13 05:22:09;;;;;;;6.47;5.87;;;;;;;25.49;47.73;98756.91;4995619;28;20206;-58
2021/08/13 05:24:37;;;;;;;6.30;5.70;;;;;;;25.53;47.32;98753.84;4995994;28;20533;-59
2021/08/13 05:27:03;;;;;;;6.23;5.73;;;;;;;25.51;47.46;98762.88;5012890;28;20202;-57
2021/08/13 05:29:31;;;;;;;6.70;6.10;;;;;;;25.46;47.63;98762.59;4995911;28;20268;-57
2021/08/13 05:31:57;;;;;;;6.03;5.53;;;;;;;25.44;47.58;98756.63;4995388;28;20227;-58
2021/08/13 05:34:24;;;;;;;5.70;5.30;;;;;;;25.43;47.50;98763.00;4995348;28;20229;-58
2021/08/13 05:36:52;;;;;;;6.10;5.60;;;;;;;25.45;47.52;98765.50;4995292;28;20742;-58
2021/08/13 05:39:19;;;;;;;6.63;6.13;;;;;;;25.46;47.59;98769.81;4995538;28;20602;-58
2021/08/13 05:41:46;;;;;;;6.43;5.83;;;;;;;25.46;47.71;98778.63;4995185;28;20702;-57
2021/08/13 05:44:12;;;;;;;6.40;5.80;;;;;;;25.49;47.48;98775.63;4995125;28;20202;-57
2021/08/13 05:46:43;;;;;;;6.47;5.97;;;;;;;25.47;47.54;98782.94;4995087;28;20219;-57
2021/08/13 05:49:09;;;;;;;5.63;5.13;;;;;;;25.47;47.77;98784.81;4995242;28;20194;-57
2021/08/13 05:51:36;;;;;;;6.10;5.60;;;;;;;25.50;47.47;98782.59;4995125;28;20223;-57
2021/08/13 05:54:05;;;;;;;6.47;5.87;;;;;;;25.48;47.56;98803.34;5012776;28;20669;-57
2021/08/13 05:56:45;;;;;;;5.90;5.40;;;;;;;25.50;47.69;98809.31;4995133;28;20535;-57
2021/08/13 05:59:12;;;;;;;5.87;5.43;;;;;;;25.50;47.73;98809.31;5012972;28;20178;-57
2021/08/13 06:01:38;;;;;;;5.93;5.43;;;;;;;25.52;47.59;98801.09;4995089;28;20249;-56
2021/08/13 06:04:05;;;;;;;6.03;5.43;;;;;;;25.52;47.32;98803.75;4995097;28;20194;-56
2021/08/13 06:06:32;;;;;;;9.97;8.60;;;;;;;25.48;48.42;98811.34;4995136;28;20321;-57
2021/08/13 06:08:58;;;;;;;9.47;8.60;;;;;;;25.46;49.65;98805.34;4995153;28;20234;-56
2021/08/13 06:11:25;;;;;;;10.97;9.87;;;;;;;25.46;50.56;98801.88;4995079;28;20195;-56
2021/08/13 06:13:52;;;;;;;10.80;9.73;;;;;;;25.44;50.77;98806.59;4994995;28;20636;-56
2021/08/13 06:16:19;;;;;;;11.10;10.10;;;;;;;25.44;51.69;98807.41;4995030;28;20191;-56
2021/08/13 06:18:46;;;;;;;11.70;10.70;;;;;;;25.46;51.80;98810.69;4994934;28;20565;-55
2021/08/13 06:21:13;;;;;;;11.93;10.73;;;;;;;25.45;52.41;98814.38;4998087;28;20202;-55
2021/08/13 06:23:40;;;;;;;12.13;10.83;;;;;;;25.43;52.61;98813.75;4998448;28;20218;-56
2021/08/13 06:26:11;;;;;;;12.60;11.33;;;;;;;25.37;53.36;98814.56;4998312;28;20208;-56
2021/08/13 06:28:44;;;;;;;15.00;13.30;;;;;;;25.40;53.10;98813.31;4998653;28;20214;-56
2021/08/13 06:31:10;;;;;;;14.80;13.23;;;;;;;25.40;53.27;98819.50;4998357;28;20194;-56
2021/08/13 06:33:37;;;;;;;15.23;13.67;;;;;;;25.38;53.68;98826.91;4998056;28;20220;-55
2021/08/13 06:36:04;;;;;;;13.67;12.07;;;;;;;25.35;53.76;98822.78;4998266;28;20210;-54
2021/08/13 06:38:33;;;;;;;14.83;12.97;;;;;;;25.38;53.80;98821.56;4998190;28;20198;-53
2021/08/13 06:41:00;;;;;;;15.47;13.90;;;;;;;25.43;54.00;98823.66;4998031;28;20199;-55
2021/08/13 06:43:26;;;;;;;14.63;13.23;;;;;;;25.41;54.37;98823.81;4997840;28;20230;-55
2021/08/13 06:45:56;;;;;;;17.97;15.47;;;;;;;25.50;53.95;98820.00;4998075;28;20322;-55
2021/08/13 06:48:29;;;;;;;16.00;14.30;;;;;;;25.57;54.00;98824.56;4997955;28;20212;-55
2021/08/13 06:50:56;;;;;;;17.73;14.50;;;;;;;25.60;53.89;98835.69;4998248;28;20199;-54
2021/08/13 06:53:26;;;;;;;15.47;13.93;;;;;;;25.70;53.96;98834.47;4997782;28;20693;-55
2021/08/13 06:55:53;;;;;;;14.17;12.77;;;;;;;25.74;53.61;98835.75;4997837;28;20209;-54
2021/08/13 06:58:19;;;;;;;14.50;12.90;;;;;;;25.75;53.70;98835.53;4997811;28;20187;-55
2021/08/13 07:00:47;;;;;;;14.30;12.93;;;;;;;25.69;54.05;98833.66;4998330;28;20282;-55
2021/08/13 07:03:13;;;;;;;14.57;13.07;;;;;;;25.75;53.69;98837.38;5015224;28;20642;-55
2021/08/13 07:05:41;;;;;;;13.43;12.13;;;;;;;25.72;54.02;98843.94;4997651;28;20297;-56
2021/08/13 07:08:12;;;;;;;12.47;11.27;;;;;;;25.72;53.76;98843.94;4997499;28;20245;-55
2021/08/13 07:10:47;;;;;;;16.20;12.30;;;;;;;25.77;53.64;98846.84;4997516;28;20665;-54
2021/08/13 07:13:13;;;;;;;13.60;12.20;;;;;;;25.82;53.45;98837.41;4997544;28;20230;-55
2021/08/13 07:15:40;;;;;;;14.47;13.13;;;;;;;25.78;53.99;98843.13;4996606;28;20290;-55
2021/08/13 07:18:06;;;;;;;14.00;12.80;;;;;;;25.73;53.96;98834.91;4997458;28;20195;-55
2021/08/13 07:20:33;;;;;;;14.00;12.60;;;;;;;25.72;54.41;98843.94;5015035;28;20195;-55
2021/08/13 07:23:03;;;;;;;14.13;12.63;;;;;;;25.72;54.61;98843.09;4997303;28;20249;-55
2021/08/13 07:25:30;;;;;;;14.30;12.90;;;;;;;25.75;54.59;98848.09;4997135;28;20626;-55
2021/08/13 07:27:57;;;;;;;13.30;12.03;;;;;;;25.79;54.43;98855.47;4997129;28;20755;-55
2021/08/13 07:30:24;;;;;;;12.03;10.93;;;;;;;25.85;53.99;98855.72;4997096;28;20557;-53
2021/08/13 07:32:51;;;;;;;12.57;11.27;;;;;;;25.92;53.51;98860.06;4997197;28;20219;-54
2021/08/13 07:35:17;;;;;;;11.73;10.73;;;;;;;25.94;53.55;98875.91;4997070;28;20194;-55
2021/08/13 07:37:49;;;;;;;11.73;10.57;;;;;;;26.01;52.94;98863.41;4997186;28;20187;-55
2021/08/13 07:40:17;;;;;;;11.90;10.90;;;;;;;26.03;52.93;98864.00;4997043;28;20250;-55
2021/08/13 07:42:45;;;;;;;11.00;9.87;;;;;;;26.05;52.57;98859.28;4996767;28;20226;-55
2021/08/13 07:45:13;;;;;;;11.20;10.10;;;;;;;26.12;52.14;98869.16;4996952;28;20634;-55
2021/08/13 07:47:40;;;;;;;11.30;10.20;;;;;;;26.12;52.40;98866.50;4996902;28;20576;-54
2021/08/13 07:50:09;;;;;;;11.73;10.63;;;;;;;26.13;52.21;98865.47;4996845;28;20257;-55
2021/08/13 07:52:37;;;;;;;11.90;10.80;;;;;;;26.15;51.91;98869.59;4996693;28;20218;-55
2021/08/13 07:55:05;;;;;;;10.97;9.90;;;;;;;26.18;52.19;98879.09;4996779;28;20202;-55
2021/08/13 07:57:31;;;;;;;11.00;9.97;;;;;;;26.13;51.87;98873.50;4996562;28;20195;-56
2021/08/13 08:00:02;;;;;;;10.30;9.40;;;;;;;26.14;51.84;98878.66;4996615;28;20222;-55
2021/08/13 08:02:33;;;;;;;10.97;9.83;;;;;;;26.18;51.56;98884.47;4996866;28;20276;-55
2021/08/13 08:05:00;;;;;;;11.17;9.00;;;;;;;26.21;51.73;98878.69;4997384;28;20201;-55
2021/08/13 08:07:27;;;;;;;10.23;9.37;;;;;;;26.28;51.71;98884.06;5014332;28;20701;-55
2021/08/13 08:09:53;;;;;;;10.63;9.63;;;;;;;26.33;51.59;98882.44;5014657;28;20665;-55
2021/08/13 08:12:20;;;;;;;11.27;10.00;;;;;;;26.35;51.38;98880.38;5014455;28;20690;-55
2021/08/13 08:14:46;;;;;;;11.07;10.00;;;;;;;26.42;51.46;98884.91;5014668;28;20294;-55
2021/08/13 08:17:13;;;;;;;11.00;9.90;;;;;;;26.47;51.31;98883.28;5014294;28;20610;-55
2021/08/13 08:19:39;;;;;;;10.57;9.47;;;;;;;26.48;51.29;98886.81;5014157;28;20191;-54
2021/08/13 08:22:06;;;;;;;11.97;10.20;;;;;;;26.56;51.31;98886.59;5014175;28;20583;-56
2021/08/13 08:24:32;;;;;;;10.50;9.47;;;;;;;26.57;51.63;98887.44;5014238;28;20264;-56
2021/08/13 08:26:59;;;;;;;10.80;9.70;;;;;;;26.56;51.21;98885.78;5013963;28;20246;-56
2021/08/13 08:29:25;;;;;;;10.70;9.30;;;;;;;26.58;51.34;98884.53;5014106;28;20196;-56
2021/08/13 08:31:52;;;;;;;11.97;10.10;;;;;;;26.57;51.08;98882.06;5014245;28;20226;-56
2021/08/13 08:34:18;;;;;;;10.37;9.17;;;;;;;26.58;51.24;98889.88;5014059;28;20223;-56
2021/08/13 08:36:45;;;;;;;10.80;8.97;;;;;;;26.61;51.65;98888.66;5014232;28;20230;-54
2021/08/13 08:39:11;;;;;;;10.50;9.40;;;;;;;26.64;51.54;98894.44;5013943;28;20233;-55
2021/08/13 08:41:38;;;;;;;11.77;9.10;;;;;;;26.66;51.72;98896.09;5013498;28;20191;-55
2021/08/13 08:44:04;;;;;;;11.07;8.37;;;;;;;26.61;51.74;98892.16;5013069;28;20293;-55
2021/08/13 08:46:31;;;;;;;9.87;8.50;;;;;;;26.61;51.67;98894.81;5013764;28;20732;-55
2021/08/13 08:48:58;;;;;;;9.60;8.70;;;;;;;26.61;51.33;98894.00;5013643;28;20541;-56
2021/08/13 08:51:25;;;;;;;11.77;9.27;;;;;;;26.63;51.39;98889.28;5013627;28;20294;-56
2021/08/13 08:53:54;;;;;;;10.27;8.77;;;;;;;26.62;51.74;98888.47;5013585;28;20317;-53
2021/08/13 08:56:26;;;;;;;9.67;8.67;;;;;;;26.67;51.90;98890.50;5013490;28;20554;-53
2021/08/13 08:58:54;;;;;;;11.30;8.60;;;;;;;26.75;51.53;98894.84;5013796;28;20274;-55
2021/08/13 09:01:22;;;;;;;9.87;8.00;;;;;;;26.85;51.34;98897.94;5013528;28;20278;-55
2021/08/13 09:03:49;;;;;;;10.67;8.50;;;;;;;26.84;51.43;98893.63;5013445;28;20218;-55
2021/08/13 09:06:15;;;;;;;8.67;7.87;;;;;;;26.84;51.60;98898.16;5013627;28;20609;-54
2021/08/13 09:08:42;;;;;;;10.07;8.93;;;;;;;26.88;51.59;98894.88;5013374;28;20215;-55
2021/08/13 09:11:09;;;;;;;11.83;8.47;;;;;;;26.86;51.66;98901.47;5013512;28;20760;-55
2021/08/13 09:13:38;;;;;;;9.57;8.27;;;;;;;26.87;51.76;98903.16;5013185;28;20266;-54
2021/08/13 09:16:12;;;;;;;10.23;8.20;;;;;;;26.90;51.49;98914.25;5013247;28;20285;-54
2021/08/13 09:18:39;;;;;;;8.97;7.57;;;;;;;26.89;51.76;98907.25;5013623;28;20178;-55
2021/08/13 09:21:07;;;;;;;9.00;8.10;;;;;;;26.96;51.82;98906.44;5013168;28;20289;-54
2021/08/13 09:23:41;;;;;;;9.57;8.17;;;;;;;26.98;51.36;98905.19;5013162;28;20732;-55
2021/08/13 09:26:10;;;;;;;8.83;7.73;;;;;;;27.00;51.65;98921.88;5013373;28;20210;-55
2021/08/13 09:29:02;;;;;;;9.73;7.70;;;;;;;26.98;51.39;98907.88;5012940;28;20685;-53
2021/08/13 09:31:50;;;;;;;9.27;7.77;;;;;;;27.00;51.51;98903.13;4995866;28;20202;-54
2021/08/13 09:34:27;;;;;;;8.63;7.70;;;;;;;26.97;51.46;98910.75;4995174;28;20195;-56
2021/08/13 09:36:55;;;;;;;9.20;8.30;;;;;;;26.95;51.69;98910.97;5012789;28;20194;-56
2021/08/13 09:39:33;;;;;;;10.33;7.90;;;;;;;27.00;51.65;98905.00;5012764;28;20680;-53
2021/08/13 09:42:06;;;;;;;9.23;8.23;;;;;;;27.06;51.56;98909.50;4995414;28;20215;-55
2021/08/13 09:44:38;;;;;;;8.90;8.07;;;;;;;27.06;51.76;98905.00;5013433;28;20191;-55
2021/08/13 09:47:07;;;;;;;9.87;8.53;;;;;;;27.08;52.03;98904.75;5012509;28;20178;-55
2021/08/13 09:49:36;;;;;;;11.17;8.80;;;;;;;27.13;51.88;98906.84;5012541;28;20198;-55
2021/08/13 09:52:17;;;;;;;8.97;8.10;;;;;;;27.13;52.14;98914.88;5012585;28;20215;-55
2021/08/13 09:54:46;;;;;;;9.40;8.50;;;;;;;27.22;51.98;98902.91;5014201;28;20187;-56
2021/08/13 09:57:15;;;;;;;11.13;8.70;;;;;;;27.26;51.75;98908.66;5016509;28;20241;-56
2021/08/13 10:00:03;;;;;;;11.17;8.33;;;;;;;27.24;51.65;98902.69;5016747;28;20530;-55
2021/08/13 10:02:42;;;;;;;12.17;8.40;;;;;;;27.19;52.03;98906.84;5015540;28;20216;-55
2021/08/13 10:05:23;;;;;;;9.37;7.90;;;;;;;27.18;52.15;98905.19;4998928;28;20223;-55
2021/08/13 10:07:55;;;;;;;11.80;9.07;;;;;;;27.18;51.65;98913.22;4998242;28;20696;-56
2021/08/13 10:10:32;;;;;;;8.57;7.67;;;;;;;27.12;51.85;98905.19;4998783;28;20192;-56
2021/08/13 10:13:04;;;;;;;9.17;8.03;;;;;;;27.11;52.00;98909.75;4998468;28;20224;-56
2021/08/13 10:15:35;;;;;;;8.73;7.93;;;;;;;27.06;52.07;98894.28;4997677;28;20577;-56
2021/08/13 10:18:11;;;;;;;8.47;7.63;;;;;;;27.05;52.06;98889.13;4998609;28;20237;-55
2021/08/13 10:20:41;;;;;;;10.30;7.70;;;;;;;27.07;51.76;98897.75;4998496;28;20234;-57
2021/08/13 10:23:09;;;;;;;9.53;8.07;;;;;;;27.05;51.84;98894.47;4998552;28;20285;-55
2021/08/13 10:25:38;;;;;;;9.73;7.63;;;;;;;27.04;51.45;98898.19;4998394;28;20580;-54
2021/08/13 10:28:05;;;;;;;9.17;7.37;;;;;;;27.04;51.59;98898.19;4998183;28;20301;-53
2021/08/13 10:30:37;;;;;;;8.43;7.33;;;;;;;27.01;51.47;98887.88;4999053;28;20200;-53
2021/08/13 10:33:07;;;;;;;9.73;8.33;;;;;;;27.04;51.48;98884.78;4998220;28;20239;-55
2021/08/13 10:35:48;;;;;;;8.60;7.70;;;;;;;27.10;50.84;98888.50;4998116;28;20665;-55
2021/08/13 10:38:18;;;;;;;9.37;7.93;;;;;;;27.09;50.91;98884.97;4998511;28;20653;-56
2021/08/13 10:40:47;;;;;;;9.60;7.83;;;;;;;27.08;50.80;98880.66;4998409;28;20203;-56
2021/08/13 10:43:16;;;;;;;10.90;8.30;;;;;;;27.01;51.07;98888.69;4997927;28;20721;-55
2021/08/13 10:45:46;;;;;;;8.17;7.37;;;;;;;26.98;51.38;98882.94;4998122;28;20281;-56
2021/08/13 10:48:20;;;;;;;8.30;7.43;;;;;;;26.97;51.32;98887.47;5015879;28;20207;-56
2021/08/13 10:50:48;;;;;;;7.97;7.17;;;;;;;26.97;50.94;98889.34;4981831;28;20202;-55
2021/08/13 10:53:34;;;;;;;8.27;7.47;;;;;;;26.98;51.22;98889.13;5015459;28;20203;-54
2021/08/13 10:56:41;;;;;;;8.97;7.30;;;;;;;27.05;50.55;98889.13;4978377;28;20294;-56
2021/08/13 10:59:40;;;;;;;7.53;6.90;;;;;;;27.12;50.73;98892.63;4994541;28;20202;-55
2021/08/13 11:02:14;;;;;;;8.73;7.07;;;;;;;27.05;50.61;98894.47;4994595;28;20220;-55
2021/08/13 11:04:50;;;;;;;7.70;7.00;;;;;;;27.00;50.56;98894.28;4994198;28;20195;-54
2021/08/13 11:07:56;;;;;;;8.00;7.20;;;;;;;26.94;50.76;98898.59;4994022;28;20226;-55
2021/08/13 11:10:39;;;;;;;7.27;6.63;;;;;;;26.91;50.57;98893.66;4978103;28;20302;-55
2021/08/13 11:13:10;;;;;;;7.87;7.07;;;;;;;26.98;50.42;98888.31;4994444;28;20226;-54
2021/08/13 11:15:38;;;;;;;7.73;7.03;;;;;;;27.00;50.58;98891.59;4993838;28;20199;-54
2021/08/13 11:18:28;;;;;;;7.77;6.97;;;;;;;27.00;50.49;98886.25;4995300;28;20192;-55
2021/08/13 11:20:56;;;;;;;7.67;6.97;;;;;;;27.01;50.69;98887.88;4994085;28;20228;-54
2021/08/13 11:23:22;;;;;;;7.33;6.70;;;;;;;26.97;50.32;98882.13;4993878;28;20203;-55
2021/08/13 11:25:51;;;;;;;8.30;7.43;;;;;;;26.96;50.50;98885.00;4977704;28;20200;-56
2021/08/13 11:28:27;;;;;;;8.57;7.40;;;;;;;26.98;50.57;98891.00;4977803;28;20593;-55
2021/08/13 11:30:59;;;;;;;8.17;7.40;;;;;;;27.05;50.35;98889.13;4995566;28;20572;-55
2021/08/13 11:33:25;;;;;;;7.83;7.13;;;;;;;27.16;50.25;98883.13;4977558;28;20252;-55
2021/08/13 11:35:57;;;;;;;8.17;7.37;;;;;;;27.24;50.35;98886.63;4993891;28;20195;-55
2021/08/13 11:38:42;;;;;;;8.53;7.63;;;;;;;27.29;50.52;98894.88;4993823;28;20643;-56
2021/08/13 11:41:25;;;;;;;8.87;7.27;;;;;;;27.31;50.64;98884.78;4993707;28;20611;-55
2021/08/13 11:43:58;;;;;;;8.73;7.83;;;;;;;27.37;50.42;98883.13;4993664;28;20702;-56